ADDS TAF Data INFO
IDs: Format: Raw Decoded Include METARs

Data at: 0147 UTC 22 Jun 2018

Region: TOP
Region: TOP
KATL 220132Z 2202/2306 22005KT P6SM FEW035 BKN120
  FM220900 24007KT P6SM BKN008
  FM221200 24007KT P6SM VCSH SCT008 BKN015
  FM221500 24008KT P6SM BKN025
  FM221800 24011G18KT P6SM BKN040
  PROB30 2220/2302 5SM TSRA OVC025CB
  FM230200 24009KT P6SM SCT050 BKN120


KBOS 212327Z 2200/2306 09007KT P6SM SCT120
  FM220200 02007KT P6SM FEW250
  FM221500 09009KT P6SM FEW250
  FM222200 13005KT P6SM SCT200


KBWI 212339Z 2200/2306 09007KT P6SM SCT035 BKN050
  FM220200 08007KT P6SM VCSH SCT035 BKN100
  FM220500 11008KT 6SM -SHRA BKN050 OVC150
  FM220800 10008KT 5SM -SHRA SCT010 BKN025 OVC050
  FM221200 09010G18KT 5SM -RA BKN015 OVC050
  FM221900 09012G22KT P6SM BKN035
  FM230300 09008KT 5SM -SHRA OVC035


KCLE 212330Z 2200/2306 03012KT P6SM OVC200
  FM220900 10010KT P6SM -SHRA OVC060
  FM221200 11011KT 5SM -SHRA OVC030
  FM221500 12012G20KT 5SM -SHRA BR OVC020
  FM221800 13012G20KT 5SM SHRA BR VCTS OVC015CB


KCLT 220106Z 2201/2306 25006KT P6SM VCSH FEW035 SCT080
  FM220300 24005KT P6SM VCSH BKN120
  FM220500 23003KT P6SM BKN120
  FM221500 22007KT P6SM SCT180
  PROB30 2221/2224 4SM -TSRA BKN060CB


KCVG 212345Z 2200/2306 11006KT P6SM VCTS BKN050CB
  TEMPO 2200/2201 BKN015CB
  FM220100 12006KT 5SM BR VCSH SCT025 BKN035
  FM220600 VRB03KT 5SM -SHRA VCTS BKN025CB
  FM220800 18004KT 5SM BR BKN025
  FM221200 20007KT 5SM BR BKN012
  FM221400 20007KT P6SM BKN018
  FM221700 19009KT P6SM VCSH BKN035
  FM221800 19012KT P6SM VCTS BKN035CB
  FM222300 19008KT P6SM BKN035


KDCA 212339Z 2200/2306 04006KT P6SM VCSH BKN050
  FM220400 09004KT 6SM -SHRA BKN025 OVC050
  FM220900 09008KT 5SM -SHRA SCT008 BKN015 OVC050
  FM221200 09010G18KT 5SM -SHRA SCT008 BKN025
  FM221800 09012G22KT P6SM BKN035
  FM230200 08007KT 5SM -SHRA OVC035


KDEN 220102Z 2201/2306 10009KT P6SM FEW120 SCT220
  FM220400 15008KT P6SM FEW220
  FM220800 20012KT P6SM FEW220
  FM221500 32008KT P6SM SCT140
  FM221700 02008KT P6SM FEW090 BKN180
  PROB30 2220/2223 VRB30G40KT -TSRA BKN080CB
  FM230000 29012KT P6SM SCT070 BKN220


KDFW 212326Z 2200/2306 15006KT P6SM FEW070 SCT250
  FM221000 23011KT P6SM SCT150
  FM222100 18011KT P6SM FEW070 SCT250


KDTW 212327Z 2200/2306 08008KT P6SM OVC200
  FM221600 10013KT P6SM VCSH BKN035 OVC060
  FM221900 10013KT 6SM -SHRA OVC015
  TEMPO 2222/2302 4SM RA BR OVC007


KEWR 212324Z 2200/2306 16006KT P6SM FEW060 SCT250
  FM220200 03004KT P6SM FEW250
  FM220900 04008KT P6SM FEW030 BKN250
  FM221400 08010KT P6SM BKN150
  FM221800 11012KT P6SM OVC120
  FM230300 07008KT P6SM VCSH SCT025 OVC050


KFLL 212334Z 2200/2306 27003KT P6SM FEW025 SCT250
  FM221400 28005KT P6SM FEW025 SCT050
  FM221800 19007KT P6SM VCTS SCT025CB BKN050
  FM230000 28005KT P6SM VCSH FEW025 SCT060 BKN120
  FM230200 28003KT P6SM FEW025 SCT250


KIAD 212339Z 2200/2306 04005KT 6SM -SHRA VCTS BKN050CB OVC150
  FM220100 05004KT P6SM VCSH SCT025 BKN050
  FM220400 09004KT 6SM -SHRA BKN025 OVC050
  FM220900 08006KT 5SM -SHRA SCT008 BKN015 OVC050
  FM221200 09010G18KT 5SM -SHRA SCT008 BKN025
  FM221800 09011G22KT P6SM BKN035
  FM230000 09009KT 5SM -SHRA OVC035


KIAH 212320Z 2200/2306 17007KT P6SM SCT030 SCT150 BKN250
  FM220200 18005KT P6SM SCT025 BKN250
  FM220800 19003KT P6SM SCT015 SCT250
  FM221000 VRB03KT P6SM BKN010
  FM221400 21005KT P6SM SCT015 BKN025
  FM221800 20007KT P6SM SCT030 SCT250


KJFK 212324Z 2200/2306 19006KT P6SM FEW060 FEW250
  FM220200 06005KT P6SM FEW250
  FM221000 06008KT P6SM FEW020 BKN250
  FM221500 09012KT P6SM FEW030 BKN150
  FM221800 11015KT P6SM OVC120
  FM230300 08011KT P6SM VCSH SCT025 OVC050


KLAS 212320Z 2200/2306 21012G20KT P6SM SKC
  FM220400 21010KT P6SM SKC
  FM221100 VRB06KT P6SM SKC
  FM221900 05006KT P6SM SKC
  FM222200 12006KT P6SM SKC
  FM230300 23006KT P6SM SKC


KLAX 220102Z 2201/2306 25010KT P6SM OVC007
  FM220300 26007KT P6SM OVC008
  FM220900 VRB03KT P6SM OVC012
  FM221800 VRB03KT P6SM OVC016
  FM222000 26012KT P6SM SCT018
  FM230300 26007KT P6SM SCT015


KLGA 212324Z 2200/2306 17005KT P6SM FEW060 SCT250
  FM220200 08005KT P6SM FEW250
  FM221000 06009KT P6SM FEW030 BKN250
  FM221500 07013KT P6SM BKN150
  FM221800 11014KT P6SM OVC150
  FM230300 08011KT P6SM VCSH SCT025 OVC060


KMCO 212338Z 2200/2306 25006KT P6SM FEW040 SCT120
  FM221700 28010KT P6SM VCTS SCT025CB SCT250
  FM222300 25007KT P6SM VCSH SCT030 BKN100


KMDW 212326Z 2200/2306 07013G19KT 4SM -SHRA BR BKN009 OVC020
  TEMPO 2202/2206 3SM SHRA
  FM220600 05013G19KT 4SM RA BR OVC007
  TEMPO 2206/2210 1SM +RA BR OVC005
  FM221300 05013G19KT 6SM -SHRA OVC006
  FM222000 04012G18KT P6SM VCSH OVC008


KMEM 212331Z 2200/2306 VRB04KT P6SM VCTS SCT045CB BKN120
  FM220200 22006KT P6SM FEW060 BKN150
  FM220500 19005KT P6SM SCT200
  FM221400 26008KT P6SM FEW030
  FM221800 27011KT P6SM SCT045


KMIA 212334Z 2200/2306 24005KT P6SM VCSH SCT025 BKN050
  FM220200 28005KT P6SM FEW025 SCT080
  FM221800 25008KT P6SM VCTS SCT025CB BKN050
  FM230000 28005KT P6SM VCSH FEW025 SCT060 BKN120
  FM230200 28003KT P6SM FEW025 SCT250


KMSP 212320Z 2200/2306 07006KT P6SM SCT050 BKN150
  FM220300 03004KT P6SM BKN200
  FM221200 06006KT P6SM SCT250


KORD 212326Z 2200/2306 06013G19KT 5SM -SHRA BR BKN009 OVC020
  TEMPO 2203/2207 3SM SHRA
  FM220700 05013G19KT 5SM RA BR OVC007
  TEMPO 2207/2211 2SM +RA BR OVC005
  FM221300 05013G19KT 6SM -SHRA OVC006
  FM222000 04012G18KT P6SM VCSH OVC008


KPDX 212328Z 2200/2224 32004KT P6SM OVC035
  FM220200 32006KT P6SM BKN050
  FM221000 31005KT P6SM OVC025
  FM221900 31008KT P6SM SCT030 BKN045


KPHL 212321Z 2200/2306 12004KT P6SM SCT100
  FM220800 07008KT P6SM BKN050
  FM222000 08010KT P6SM OVC025
  FM222300 06008KT P6SM OVC015


KPHX 220000Z 2200/2306 27012G20KT P6SM SKC
  FM220300 26010KT P6SM SKC
  FM221100 10005KT P6SM SKC
  FM221900 26010KT P6SM SKC


KPIT 212320Z 2200/2306 08005KT P6SM BKN200
  FM220300 10006KT P6SM VCSH OVC045
  FM220600 12007KT 4SM -SHRA BKN035
  FM221200 10008KT P6SM OVC015
  FM222100 12010KT P6SM VCTS OVC025CB
  FM230000 13008KT P6SM VCSH BKN040


KSAN 212326Z 2200/2306 22009KT P6SM BKN016
  FM220100 25006KT P6SM BKN013
  FM220900 VRB03KT 5SM BR OVC008
  FM221700 VRB04KT P6SM OVC011
  FM221900 26010KT P6SM SCT012
  FM230100 27005KT P6SM SCT012
  FM230400 VRB04KT P6SM BKN010


KSEA 212347Z 2200/2306 22009KT P6SM OVC030
  FM220100 21009KT P6SM SCT035
  FM220700 20008KT P6SM OVC015
  FM221800 21010KT P6SM OVC020
  FM222100 22010KT P6SM OVC030
  FM230100 29008KT P6SM BKN035 OVC045


KSFO 212320Z 2200/2306 28020G26KT P6SM SKC
  FM220400 28013KT P6SM FEW012
  FM220800 28008KT P6SM FEW012
  FM221100 28007KT P6SM SCT010
  FM221500 29003KT P6SM SCT200
  FM222000 30015KT P6SM SKC
  FM230400 29008KT P6SM SKC


KSLC 212324Z 2200/2306 33014G21KT P6SM SCT200
  FM220200 33007KT P6SM SKC
  FM221100 14006KT P6SM SKC
  FM221600 33007KT P6SM FEW200
  FM230300 16007KT P6SM SKC


KSTL 212321Z 2200/2306 27008KT P6SM VCSH OVC070
  TEMPO 2200/2203 27025G30KT
  FM220700 27004KT P6SM VCSH OVC030
  FM221300 28005KT P6SM VCSH OVC015
  FM221700 29008KT 6SM -SHRA OVC025
  FM222200 31009KT 6SM -SHRA OVC035
  FM230200 31006KT P6SM BKN030


KTPA 212334Z 2200/2306 30007KT P6SM SCT030 BKN250
  FM220300 25006KT P6SM FEW020 SCT200
  FM221100 26007KT P6SM VCSH SCT025 SCT150
  FM221600 26008KT P6SM VCTS BKN030CB BKN150
  FM222100 28008KT P6SM SCT040 SCT100 BKN250
  FM230100 VRB05KT P6SM FEW040 SCT250